Time;durP1;ratioP1;P1;durP2;ratioP2;P2;SDS_P1;SDS_P2;PMS_P1;PMS_P2;Temp;Humidity;BMP_temperature;BMP_pressure;BME280_temperature;BME280_humidity;BME280_pressure;Samples;Min_cycle;Max_cycle;Signal;HPM_P1;HPM_P2
2022/06/22 00:00:39;;;;;;;3.40;1.98;;;29.70;96.30;;;;;;4177047;28;20048;-65
2022/06/22 00:02:46;;;;;;;2.05;1.30;;;29.70;96.40;;;;;;4177060;28;20107;-65
2022/06/22 00:05:04;;;;;;;3.60;1.42;;;29.70;96.30;;;;;;4177936;28;20110;-65
2022/06/22 00:07:14;;;;;;;7.78;2.17;;;29.80;96.30;;;;;;4178634;28;20103;-65
2022/06/22 00:09:33;;;;;;;3.47;1.38;;;29.80;96.30;;;;;;4177891;28;20059;-65
2022/06/22 00:11:45;;;;;;;4.65;1.58;;;29.80;96.30;;;;;;4161631;28;20057;-65
2022/06/22 00:13:52;;;;;;;3.75;1.90;;;29.80;96.40;;;;;;4177979;28;20041;-65
2022/06/22 00:16:05;;;;;;;4.72;1.70;;;29.80;96.30;;;;;;4177701;28;20128;-65
2022/06/22 00:18:35;;;;;;;3.88;1.60;;;29.80;96.30;;;;;;4169408;28;20507;-65
2022/06/22 00:20:39;;;;;;;4.38;1.70;;;29.80;96.30;;;;;;4176869;28;20041;-65
2022/06/22 00:22:51;;;;;;;4.03;1.50;;;29.80;96.50;;;;;;4176728;28;20374;-65
2022/06/22 00:25:22;;;;;;;3.83;1.60;;;29.80;96.60;;;;;;4127305;28;20497;-65
2022/06/22 00:27:36;;;;;;;2.95;1.42;;;29.80;96.50;;;;;;4170746;28;20045;-65
2022/06/22 00:29:41;;;;;;;4.95;1.67;;;29.90;96.50;;;;;;4176615;28;20048;-65
2022/06/22 00:32:01;;;;;;;3.63;1.45;;;30.00;96.20;;;;;;4176496;28;20128;-65
2022/06/22 00:34:16;;;;;;;3.17;1.50;;;30.00;95.90;;;;;;4176982;28;20053;-65
2022/06/22 00:36:23;;;;;;;3.97;1.52;;;30.10;96.00;;;;;;4176069;28;20049;-65
2022/06/22 00:38:32;;;;;;;3.58;1.83;;;30.10;95.90;;;;;;4175784;28;20131;-64
2022/06/22 00:40:37;;;;;;;3.78;1.48;;;30.10;95.90;;;;;;4168524;28;20041;-64
2022/06/22 00:42:47;;;;;;;4.82;1.80;;;30.10;95.80;;;;;;4156667;28;20045;-64
2022/06/22 00:45:29;;;;;;;2.53;1.48;;;30.10;95.80;;;;;;4175107;28;20090;-64
2022/06/22 00:47:47;;;;;;;3.03;1.30;;;30.10;95.80;;;;;;4172204;28;20052;-65
2022/06/22 00:50:00;;;;;;;3.97;1.73;;;30.10;95.90;;;;;;4176180;28;20443;-65
2022/06/22 00:52:08;;;;;;;4.78;1.80;;;30.10;95.90;;;;;;4177345;28;20430;-65
2022/06/22 00:54:16;;;;;;;3.70;1.80;;;30.10;96.00;;;;;;4177358;28;20044;-65
2022/06/22 00:56:55;;;;;;;4.07;1.75;;;30.20;96.00;;;;;;4178136;28;20400;-64
2022/06/22 00:59:35;;;;;;;2.70;1.50;;;30.20;95.70;;;;;;4178111;28;20442;-65
2022/06/22 01:02:10;;;;;;;5.70;1.53;;;30.10;95.60;;;;;;4178563;28;20044;-65
2022/06/22 01:04:31;;;;;;;3.63;1.80;;;30.20;95.70;;;;;;4178361;28;20060;-65
2022/06/22 01:06:57;;;;;;;7.35;2.03;;;30.20;95.60;;;;;;4172384;28;20298;-65
2022/06/22 01:09:36;;;;;;;5.07;1.67;;;30.30;95.60;;;;;;4177610;28;20092;-65
2022/06/22 01:14:39;;;;;;;5.10;1.50;;;30.30;95.70;;;;;;4181326;28;20128;-65
2022/06/22 01:16:49;;;;;;;3.55;1.50;;;30.30;95.80;;;;;;4179407;28;20077;-66
2022/06/22 01:19:16;;;;;;;4.10;1.70;;;30.40;95.80;;;;;;4180653;28;20119;-66
2022/06/22 01:21:37;;;;;;;4.80;1.63;;;30.50;95.80;;;;;;4181177;28;20045;-66
2022/06/22 01:24:19;;;;;;;5.90;1.90;;;30.60;95.80;;;;;;4166151;28;20061;-66
2022/06/22 01:27:11;;;;;;;4.70;1.80;;;30.70;95.80;;;;;;4180395;28;20094;-66
2022/06/22 01:29:23;;;;;;;5.40;1.98;;;30.80;95.60;;;;;;4180382;28;20527;-66
2022/06/22 01:31:34;;;;;;;5.35;2.13;;;30.80;95.50;;;;;;4179933;28;20495;-66
2022/06/22 01:33:46;;;;;;;4.43;1.85;;;30.80;95.30;;;;;;4173737;28;20059;-66
2022/06/22 01:35:58;;;;;;;4.60;2.10;;;30.80;95.30;;;;;;4179739;28;20053;-65
2022/06/22 01:38:14;;;;;;;3.38;1.80;;;30.80;95.40;;;;;;4180079;28;20056;-65
2022/06/22 01:40:33;;;;;;;3.33;1.50;;;30.80;95.20;;;;;;4180171;28;20507;-66
2022/06/22 01:42:44;;;;;;;3.90;2.05;;;30.80;95.20;;;;;;4181315;28;20075;-66
2022/06/22 01:45:00;;;;;;;3.75;2.05;;;30.80;95.20;;;;;;4180106;28;20049;-66
2022/06/22 01:47:33;;;;;;;7.40;2.00;;;30.80;95.20;;;;;;4180357;28;20041;-66
2022/06/22 01:50:13;;;;;;;4.20;2.00;;;30.80;95.20;;;;;;4180976;28;20080;-66
2022/06/22 01:53:02;;;;;;;5.35;2.08;;;30.80;95.20;;;;;;4177294;28;20047;-66
2022/06/22 01:55:35;;;;;;;4.15;2.10;;;31.00;95.20;;;;;;4168746;28;20072;-66
2022/06/22 01:57:45;;;;;;;4.65;2.05;;;31.10;95.10;;;;;;4180420;28;20454;-66
2022/06/22 02:00:00;;;;;;;6.53;2.40;;;31.20;95.00;;;;;;4173421;28;20056;-65
2022/06/22 02:02:28;;;;;;;7.38;2.35;;;31.30;95.10;;;;;;4180629;28;20484;-67
2022/06/22 02:04:47;;;;;;;8.35;2.50;;;31.40;94.90;;;;;;4180637;28;20076;-66
2022/06/22 02:10:02;;;;;;;6.47;2.20;;;31.50;94.90;;;;;;4180127;28;20056;-66
2022/06/22 02:12:27;;;;;;;8.20;2.15;;;31.60;95.10;;;;;;4176350;28;20403;-67
2022/06/22 02:14:34;;;;;;;5.63;2.50;;;31.70;95.10;;;;;;4180967;28;20041;-66
2022/06/22 02:16:59;;;;;;;5.28;2.67;;;31.70;95.00;;;;;;4179069;28;20643;-66
2022/06/22 02:19:10;;;;;;;4.60;2.75;;;31.80;94.90;;;;;;4180931;28;20068;-66
2022/06/22 02:21:45;;;;;;;6.05;3.03;;;31.80;94.80;;;;;;4180318;28;20060;-67
2022/06/22 02:24:06;;;;;;;8.20;2.90;;;31.80;94.70;;;;;;4180624;28;20065;-66
2022/06/22 02:26:42;;;;;;;5.47;2.80;;;31.90;94.80;;;;;;4179178;28;20064;-66
2022/06/22 02:28:49;;;;;;;5.78;2.70;;;32.00;94.60;;;;;;4170653;28;20067;-66
2022/06/22 02:30:58;;;;;;;4.53;2.30;;;32.10;94.60;;;;;;4180423;28;20495;-66
2022/06/22 02:33:17;;;;;;;7.45;2.83;;;32.10;94.60;;;;;;4180289;28;20044;-66
2022/06/22 02:35:40;;;;;;;4.18;2.20;;;32.20;94.60;;;;;;4179697;28;20116;-66
2022/06/22 02:37:56;;;;;;;5.13;2.53;;;32.20;94.40;;;;;;4179853;28;20132;-66
2022/06/22 02:40:03;;;;;;;4.97;2.40;;;32.30;94.40;;;;;;4172530;28;20071;-66
2022/06/22 02:44:34;;;;;;;6.57;2.38;;;32.50;94.20;;;;;;4180210;28;20052;-65
2022/06/22 02:46:40;;;;;;;5.20;2.13;;;32.60;93.90;;;;;;4178203;28;20037;-65
2022/06/22 02:48:49;;;;;;;4.50;2.17;;;32.70;94.20;;;;;;4179179;28;20053;-65
2022/06/22 02:51:06;;;;;;;6.13;2.33;;;32.80;93.80;;;;;;4179286;28;20040;-66
2022/06/22 02:53:24;;;;;;;3.70;2.03;;;32.90;93.70;;;;;;4179076;28;20120;-67
2022/06/22 02:55:32;;;;;;;5.65;2.47;;;33.00;93.60;;;;;;4178669;28;20132;-66
2022/06/22 02:57:58;;;;;;;3.90;2.45;;;33.00;93.50;;;;;;4178988;28;20041;-66
2022/06/22 03:00:03;;;;;;;4.85;2.40;;;33.10;93.40;;;;;;4179373;28;20040;-66
2022/06/22 03:02:08;;;;;;;4.95;2.47;;;33.00;92.60;;;;;;4171323;28;20689;-65
2022/06/22 03:04:17;;;;;;;3.80;2.13;;;33.00;92.90;;;;;;4159672;28;20523;-66
2022/06/22 03:06:23;;;;;;;4.90;2.00;;;33.10;92.90;;;;;;4178684;28;20044;-66
2022/06/22 03:08:27;;;;;;;15.98;4.72;;;33.30;93.00;;;;;;4177588;28;20856;-64
2022/06/22 03:11:03;;;;;;;6.68;2.58;;;33.50;92.90;;;;;;4177051;28;20052;-66
2022/06/22 03:13:10;;;;;;;4.25;2.10;;;33.50;92.60;;;;;;4178936;28;20140;-65
2022/06/22 03:15:21;;;;;;;4.97;2.30;;;33.60;92.50;;;;;;4177282;28;20108;-66
2022/06/22 03:17:35;;;;;;;5.75;2.80;;;33.70;92.50;;;;;;4178906;28;20049;-66
2022/06/22 03:20:12;;;;;;;4.57;2.25;;;33.70;92.50;;;;;;4175797;28;20501;-65
2022/06/22 03:22:26;;;;;;;3.65;2.10;;;33.70;92.20;;;;;;4163543;28;20443;-65
2022/06/22 03:24:52;;;;;;;6.40;2.80;;;33.70;92.20;;;;;;4178536;28;20111;-65
2022/06/22 03:27:20;;;;;;;4.85;1.98;;;33.80;92.10;;;;;;4177132;28;20053;-65
2022/06/22 03:29:44;;;;;;;3.78;1.85;;;33.90;91.50;;;;;;4178938;28;20057;-66
2022/06/22 03:32:11;;;;;;;4.22;1.90;;;33.90;91.30;;;;;;4178197;28;20037;-65
2022/06/22 03:34:25;;;;;;;2.90;1.70;;;34.00;91.00;;;;;;4178234;28;20044;-66
2022/06/22 03:42:50;;;;;;;5.75;2.00;;;33.80;91.00;;;;;;4169459;28;20044;-65
2022/06/22 03:45:20;;;;;;;4.43;1.70;;;33.80;91.10;;;;;;4177530;28;20072;-66
2022/06/22 03:47:57;;;;;;;4.22;1.60;;;33.80;90.30;;;;;;4152130;28;20057;-65
2022/06/22 03:50:35;;;;;;;2.85;1.95;;;33.70;90.50;;;;;;4155478;28;20041;-66
2022/06/22 03:53:06;;;;;;;3.13;1.50;;;33.90;90.50;;;;;;4176058;28;20075;-66
2022/06/22 03:55:30;;;;;;;3.57;1.90;;;33.90;90.60;;;;;;4177435;28;20037;-66
2022/06/22 03:57:36;;;;;;;3.10;1.42;;;33.90;90.90;;;;;;4177742;28;20056;-65
2022/06/22 03:59:42;;;;;;;2.60;1.77;;;34.00;91.00;;;;;;4176281;28;20041;-65
2022/06/22 04:01:51;;;;;;;6.25;1.75;;;34.10;90.90;;;;;;4177488;28;20129;-65
2022/06/22 04:03:56;;;;;;;4.13;1.80;;;34.10;90.40;;;;;;4177039;28;20048;-65
2022/06/22 04:06:03;;;;;;;2.65;2.00;;;34.10;90.40;;;;;;4175439;28;20068;-65
2022/06/22 04:08:15;;;;;;;2.53;1.58;;;34.10;90.30;;;;;;4177473;28;20055;-65
2022/06/22 04:10:44;;;;;;;3.80;1.50;;;34.10;90.20;;;;;;4175931;28;20468;-65
2022/06/22 04:12:49;;;;;;;3.95;2.03;;;34.10;90.20;;;;;;4167535;28;20080;-65
2022/06/22 04:15:34;;;;;;;2.55;1.73;;;34.30;89.90;;;;;;4173918;28;20122;-65
2022/06/22 04:17:56;;;;;;;4.53;1.70;;;34.40;90.80;;;;;;4190323;28;20040;-65
2022/06/22 04:20:49;;;;;;;2.60;1.58;;;34.60;89.90;;;;;;4174446;28;20127;-65
2022/06/22 04:22:56;;;;;;;2.35;1.60;;;34.60;89.40;;;;;;4169003;28;20110;-65
2022/06/22 04:25:05;;;;;;;4.97;1.70;;;34.70;89.60;;;;;;4176458;28;20083;-65
2022/06/22 04:27:33;;;;;;;2.53;1.48;;;34.80;87.80;;;;;;4169951;28;20134;-65
2022/06/22 04:30:00;;;;;;;4.55;1.52;;;34.80;87.20;;;;;;4174285;28;20053;-64
2022/06/22 04:32:33;;;;;;;3.67;1.90;;;34.60;87.60;;;;;;4171856;28;20132;-64
2022/06/22 04:34:45;;;;;;;4.15;2.00;;;34.40;89.00;;;;;;4176692;28;20091;-65
2022/06/22 04:36:53;;;;;;;6.05;2.20;;;34.60;89.70;;;;;;4170433;28;20049;-65
2022/06/22 04:39:01;;;;;;;4.95;1.73;;;34.70;90.10;;;;;;4176930;28;20449;-64
2022/06/22 04:41:28;;;;;;;2.78;1.77;;;34.50;89.20;;;;;;4177155;28;20048;-64
2022/06/22 04:43:33;;;;;;;3.08;1.75;;;34.50;88.60;;;;;;4177711;28;20114;-64
2022/06/22 04:45:39;;;;;;;4.20;1.75;;;34.40;89.20;;;;;;4180113;28;20092;-64
2022/06/22 04:47:46;;;;;;;3.70;1.73;;;34.50;89.60;;;;;;4180208;28;20106;-64
2022/06/22 04:50:11;;;;;;;5.38;1.63;;;34.40;90.00;;;;;;4181003;28;20048;-64
2022/06/22 04:52:23;;;;;;;2.90;1.77;;;34.50;90.10;;;;;;4178435;28;20059;-64
2022/06/22 04:54:40;;;;;;;4.07;2.00;;;34.50;90.00;;;;;;4181058;28;20428;-64
2022/06/22 04:56:46;;;;;;;4.68;1.50;;;34.50;90.00;;;;;;4179332;28;20511;-64
2022/06/22 04:58:53;;;;;;;3.63;1.50;;;34.60;90.00;;;;;;4180774;28;20547;-64
2022/06/22 05:01:00;;;;;;;3.53;1.60;;;34.50;89.50;;;;;;4180904;28;20064;-64
2022/06/22 05:03:09;;;;;;;4.40;1.70;;;34.60;89.20;;;;;;4178443;28;20049;-64
2022/06/22 05:05:21;;;;;;;3.13;1.60;;;34.80;88.30;;;;;;4179488;28;20120;-64
2022/06/22 05:07:55;;;;;;;3.30;1.65;;;35.00;88.40;;;;;;4179745;28;20091;-65
2022/06/22 05:10:29;;;;;;;3.95;1.48;;;35.10;87.00;;;;;;4180200;28;20136;-64
2022/06/22 05:12:50;;;;;;;3.55;1.45;;;35.30;87.90;;;;;;4176112;28;20113;-64
2022/06/22 05:14:55;;;;;;;3.05;1.60;;;35.30;87.90;;;;;;4178597;28;20041;-64
2022/06/22 05:17:04;;;;;;;2.92;1.60;;;35.10;88.30;;;;;;4180281;28;20511;-64
2022/06/22 05:19:57;;;;;;;1.88;1.17;;;35.10;88.90;;;;;;4179337;28;20063;-64
2022/06/22 05:22:02;;;;;;;2.42;1.27;;;35.30;87.90;;;;;;4180424;28;20479;-64
2022/06/22 05:24:27;;;;;;;3.20;1.42;;;35.50;87.30;;;;;;4178052;28;20049;-64
2022/06/22 05:26:38;;;;;;;2.42;1.20;;;35.60;85.80;;;;;;4179433;28;20084;-65
2022/06/22 05:29:09;;;;;;;1.83;1.10;;;35.60;84.70;;;;;;4162949;28;20087;-64
2022/06/22 05:31:28;;;;;;;1.33;1.08;;;35.60;84.80;;;;;;4176077;28;20056;-64
2022/06/22 05:33:36;;;;;;;2.47;1.23;;;35.80;85.00;;;;;;4179699;28;20052;-64
2022/06/22 05:35:48;;;;;;;1.90;1.27;;;35.90;85.20;;;;;;4178860;28;20816;-65
2022/06/22 05:37:54;;;;;;;3.95;1.40;;;36.00;85.20;;;;;;4172447;28;20151;-64
2022/06/22 05:40:04;;;;;;;2.17;1.45;;;36.00;84.30;;;;;;4174810;28;20040;-64
2022/06/22 05:42:12;;;;;;;2.40;1.30;;;36.00;82.70;;;;;;4179431;28;20426;-64
2022/06/22 05:44:18;;;;;;;5.35;1.45;;;36.00;82.10;;;;;;4179385;28;20037;-64
2022/06/22 05:46:28;;;;;;;2.47;1.50;;;36.10;81.40;;;;;;4180062;28;20067;-64
2022/06/22 05:48:38;;;;;;;1.95;1.02;;;36.30;82.00;;;;;;4180399;28;20045;-64
2022/06/22 05:50:56;;;;;;;4.85;1.50;;;36.10;80.10;;;;;;4180222;28;20053;-64
2022/06/22 05:53:11;;;;;;;2.47;1.10;;;36.10;79.80;;;;;;4177874;28;20046;-64
2022/06/22 05:55:22;;;;;;;;;;;35.70;82.00;;;;;;4171468;28;20041;-65
2022/06/22 05:57:37;;;;;;;2.60;1.20;;;35.80;82.70;;;;;;4173629;28;20274;-64
2022/06/22 05:59:48;;;;;;;2.80;1.30;;;36.10;82.50;;;;;;4177035;28;20147;-64
2022/06/22 06:02:03;;;;;;;2.50;1.20;;;36.10;82.10;;;;;;4179790;28;20053;-64
2022/06/22 06:04:28;;;;;;;3.70;1.17;;;36.30;80.50;;;;;;4179780;28;20132;-65
2022/06/22 06:06:38;;;;;;;2.75;1.23;;;36.40;79.00;;;;;;4175786;28;20503;-64
2022/06/22 06:08:47;;;;;;;1.38;0.80;;;36.40;77.50;;;;;;4178778;28;20053;-64
2022/06/22 06:10:51;;;;;;;1.98;1.05;;;36.30;77.70;;;;;;4178063;28;20045;-64
2022/06/22 06:13:28;;;;;;;1.58;0.90;;;36.40;78.90;;;;;;4179701;28;20079;-64
2022/06/22 06:15:35;;;;;;;1.50;0.90;;;36.60;78.70;;;;;;4177910;28;20046;-64
2022/06/22 06:17:44;;;;;;;2.15;1.00;;;36.70;79.30;;;;;;4179667;28;20036;-64
2022/06/22 06:19:54;;;;;;;2.53;1.20;;;36.80;79.30;;;;;;4179507;28;20048;-64
2022/06/22 06:22:06;;;;;;;3.38;1.23;;;37.00;79.60;;;;;;4179568;28;20045;-64
2022/06/22 06:24:19;;;;;;;2.58;0.93;;;37.00;79.60;;;;;;4179723;28;20041;-64
2022/06/22 06:29:13;;;;;;;1.75;1.00;;;37.20;78.80;;;;;;4179399;28;20049;-65
2022/06/22 06:31:58;;;;;;;2.88;0.90;;;37.40;80.40;;;;;;4179223;28;20051;-65
2022/06/22 06:34:03;;;;;;;2.95;1.00;;;37.30;78.60;;;;;;4176154;28;20076;-65
2022/06/22 06:36:32;;;;;;;2.72;1.10;;;37.10;79.50;;;;;;4178711;28;20514;-65
2022/06/22 06:38:40;;;;;;;3.03;1.20;;;36.70;80.30;;;;;;4179301;28;20511;-64
2022/06/22 06:41:01;;;;;;;2.17;1.10;;;36.70;79.60;;;;;;4172134;28;20045;-64
2022/06/22 06:43:36;;;;;;;2.80;1.40;;;36.60;80.30;;;;;;4167814;28;20700;-65
2022/06/22 06:45:42;;;;;;;2.60;1.13;;;36.50;80.30;;;;;;4178423;28;20057;-64
2022/06/22 06:47:55;;;;;;;1.85;1.05;;;36.50;80.40;;;;;;4178228;28;20049;-65
2022/06/22 06:50:08;;;;;;;2.78;1.05;;;36.30;80.80;;;;;;4177955;28;20040;-65
2022/06/22 06:52:26;;;;;;;;;;;36.20;80.90;;;;;;4179730;28;20045;-65
2022/06/22 06:54:59;;;;;;;2.47;1.35;;;36.10;81.50;;;;;;4176900;28;19929;-65
2022/06/22 06:57:15;;;;;;;2.50;1.48;;;36.10;82.30;;;;;;4177827;28;20060;-65
2022/06/22 06:59:24;;;;;;;4.18;1.00;;;35.90;82.90;;;;;;4179116;28;20098;-65
2022/06/22 07:01:31;;;;;;;2.53;1.30;;;35.80;83.00;;;;;;4178176;28;20055;-65
2022/06/22 07:03:38;;;;;;;2.65;1.30;;;35.80;83.50;;;;;;4177843;28;20045;-65
2022/06/22 07:05:45;;;;;;;4.40;1.40;;;35.70;83.50;;;;;;4179154;28;20103;-65
2022/06/22 07:08:13;;;;;;;5.53;2.33;;;35.70;84.90;;;;;;4169038;28;20037;-66
2022/06/22 07:10:51;;;;;;;5.63;2.72;;;35.60;87.00;;;;;;4178917;28;20083;-65
2022/06/22 07:13:00;;;;;;;8.38;4.97;;;35.60;87.70;;;;;;4170906;28;20052;-65
2022/06/22 07:15:05;;;;;;;8.20;5.53;;;35.50;89.70;;;;;;4177612;28;20053;-65
2022/06/22 07:17:15;;;;;;;9.88;6.30;;;35.20;90.50;;;;;;4177817;28;20423;-65
2022/06/22 07:19:37;;;;;;;9.88;7.10;;;35.00;90.80;;;;;;4179017;28;20037;-65
2022/06/22 07:22:07;;;;;;;12.30;7.70;;;34.90;91.00;;;;;;4178645;28;20056;-65
2022/06/22 07:24:33;;;;;;;10.43;7.20;;;34.80;91.10;;;;;;4170034;28;20132;-65
2022/06/22 07:27:01;;;;;;;9.20;6.68;;;34.80;91.00;;;;;;4177373;28;20056;-65
2022/06/22 07:29:30;;;;;;;11.93;7.40;;;34.80;91.10;;;;;;4176630;28;20554;-65
2022/06/22 07:31:40;;;;;;;11.00;6.68;;;34.80;91.30;;;;;;4178644;28;20048;-65
2022/06/22 07:33:50;;;;;;;12.40;6.80;;;34.80;91.40;;;;;;4177364;28;20467;-65
2022/06/22 07:36:04;;;;;;;8.85;5.15;;;34.70;91.40;;;;;;4176616;28;20069;-65
2022/06/22 07:38:48;;;;;;;9.65;4.32;;;34.70;91.20;;;;;;4178441;28;20136;-65
2022/06/22 07:43:14;;;;;;;9.20;4.75;;;34.70;91.40;;;;;;4178302;28;20128;-65
2022/06/22 07:45:19;;;;;;;9.10;4.60;;;34.80;91.30;;;;;;4176706;28;20049;-65
2022/06/22 07:47:43;;;;;;;8.77;6.30;;;34.80;91.20;;;;;;4177214;28;20457;-65
2022/06/22 07:50:07;;;;;;;8.52;5.45;;;34.70;91.30;;;;;;4178163;28;20049;-66
2022/06/22 07:52:16;;;;;;;11.90;8.35;;;34.70;91.30;;;;;;4169246;28;20136;-65
2022/06/22 07:54:41;;;;;;;14.68;10.70;;;34.60;91.50;;;;;;4158989;28;20068;-65
2022/06/22 07:57:26;;;;;;;14.27;9.88;;;34.70;91.60;;;;;;4177872;28;20144;-65
2022/06/22 07:59:44;;;;;;;10.40;7.75;;;34.60;91.70;;;;;;4172931;28;20420;-65
2022/06/22 08:01:48;;;;;;;9.98;5.88;;;34.80;91.50;;;;;;4176731;28;20503;-65
2022/06/22 08:04:02;;;;;;;7.35;5.47;;;34.90;91.30;;;;;;4175657;28;20548;-65
2022/06/22 08:06:12;;;;;;;7.68;5.65;;;35.00;91.10;;;;;;4176580;28;20036;-66
2022/06/22 08:08:35;;;;;;;7.68;4.50;;;35.10;91.10;;;;;;4170185;28;20044;-65
2022/06/22 08:11:01;;;;;;;5.78;3.30;;;35.10;91.00;;;;;;4176579;28;20044;-65
2022/06/22 08:13:15;;;;;;;7.55;3.58;;;35.10;91.00;;;;;;4177251;28;20041;-65
2022/06/22 08:15:20;;;;;;;5.88;3.47;;;35.10;90.90;;;;;;4168866;28;20123;-65
2022/06/22 08:17:44;;;;;;;5.38;3.13;;;35.00;90.80;;;;;;4171155;28;20053;-65
2022/06/22 08:19:51;;;;;;;7.47;3.60;;;34.90;90.60;;;;;;4142105;28;20054;-65
2022/06/22 08:22:01;;;;;;;5.50;3.22;;;34.80;90.60;;;;;;4176128;28;20049;-65
2022/06/22 08:24:09;;;;;;;6.75;3.35;;;34.80;90.70;;;;;;4176012;28;20663;-65
2022/06/22 08:26:37;;;;;;;6.13;2.70;;;34.80;91.20;;;;;;4170045;28;20044;-65
2022/06/22 08:28:41;;;;;;;6.78;2.72;;;34.70;91.40;;;;;;4171586;28;20049;-65
2022/06/22 08:30:53;;;;;;;3.90;2.33;;;34.50;91.40;;;;;;4177068;28;20045;-65
2022/06/22 08:33:05;;;;;;;5.50;3.13;;;34.50;91.60;;;;;;4177150;28;20722;-66
2022/06/22 08:35:31;;;;;;;5.32;2.90;;;34.40;91.30;;;;;;4177257;28;20074;-66
2022/06/22 08:38:00;;;;;;;7.25;2.10;;;34.10;90.40;;;;;;4176878;28;20068;-65
2022/06/22 08:40:52;;;;;;;7.20;1.55;;;33.50;86.70;;;;;;4168580;28;20116;-65
2022/06/22 08:43:10;;;;;;;11.68;2.35;;;32.50;89.00;;;;;;4172210;28;20111;-65
2022/06/22 08:45:35;;;;;;;6.05;3.40;;;31.80;90.30;;;;;;4189673;28;20045;-65
2022/06/22 08:48:04;;;;;;;6.38;2.30;;;31.50;90.70;;;;;;4166786;28;20053;-65
2022/06/22 08:50:19;;;;;;;3.63;1.60;;;31.20;90.50;;;;;;4175792;28;20047;-65
2022/06/22 08:52:45;;;;;;;3.80;1.52;;;31.30;90.10;;;;;;4169667;28;20474;-65
2022/06/22 08:55:41;;;;;;;8.02;5.05;;;31.30;89.80;;;;;;4177258;28;20106;-65
2022/06/22 08:58:07;;;;;;;32.05;23.75;;;31.70;88.80;;;;;;4177501;28;20072;-65
2022/06/22 09:00:57;;;;;;;16.17;11.52;;;32.00;87.20;;;;;;4177430;28;20048;-65
2022/06/22 09:03:31;;;;;;;7.55;4.22;;;32.00;86.80;;;;;;4171859;28;20632;-64
2022/06/22 09:05:58;;;;;;;5.30;1.60;;;31.80;86.70;;;;;;4177295;28;20045;-65
2022/06/22 09:08:21;;;;;;;4.85;1.48;;;31.70;87.40;;;;;;4171199;28;20045;-64
2022/06/22 09:10:51;;;;;;;2.92;1.00;;;31.40;86.20;;;;;;4176935;28;20052;-64
2022/06/22 09:13:31;;;;;;;3.42;1.42;;;31.40;86.20;;;;;;4170345;28;20122;-65
2022/06/22 09:16:03;;;;;;;5.78;2.00;;;31.00;86.20;;;;;;4177248;28;20041;-65
2022/06/22 09:18:29;;;;;;;9.15;4.40;;;31.10;86.90;;;;;;4172439;28;20047;-64
2022/06/22 09:21:00;;;;;;;6.47;3.35;;;31.20;87.10;;;;;;4177118;28;20055;-65
2022/06/22 09:23:31;;;;;;;4.45;2.30;;;31.30;87.20;;;;;;4186127;28;20060;-65
2022/06/22 09:25:49;;;;;;;5.55;2.55;;;31.40;87.50;;;;;;4175945;28;20162;-64
2022/06/22 09:28:33;;;;;;;6.13;3.05;;;31.40;87.20;;;;;;4177013;28;20052;-65
2022/06/22 09:31:03;;;;;;;16.35;6.72;;;31.50;87.10;;;;;;4178123;28;20518;-64
2022/06/22 09:33:42;;;;;;;15.13;5.95;;;31.50;87.30;;;;;;4180029;28;20091;-65
2022/06/22 09:36:20;;;;;;;6.93;3.20;;;31.80;86.50;;;;;;4174159;28;20068;-65
2022/06/22 09:38:58;;;;;;;5.25;2.25;;;32.00;85.90;;;;;;4175408;28;20110;-64
2022/06/22 09:41:37;;;;;;;5.78;2.88;;;32.20;85.50;;;;;;4172075;28;20069;-65
2022/06/22 09:44:07;;;;;;;4.45;2.70;;;32.20;85.40;;;;;;4178983;28;20075;-64
2022/06/22 09:46:36;;;;;;;11.25;6.78;;;32.40;85.10;;;;;;4178796;28;20045;-65
2022/06/22 09:48:58;;;;;;;8.88;4.55;;;32.30;85.10;;;;;;4176603;28;20458;-65
2022/06/22 09:51:29;;;;;;;6.32;3.03;;;32.30;85.30;;;;;;4178574;28;20087;-64
2022/06/22 09:56:19;;;;;;;9.85;6.50;;;32.30;85.50;;;;;;4179756;28;20045;-65
2022/06/22 09:57:02;;;;;;;20.05;9.90;;;32.30;85.90;;;;;;4175294;28;20048;-65
2022/06/22 09:59:51;;;;;;;38.03;14.50;;;32.40;86.30;;;;;;4172047;28;20053;-65
2022/06/22 10:02:29;;;;;;;22.05;10.50;;;32.60;87.30;;;;;;4175716;28;20052;-65
2022/06/22 10:05:09;;;;;;;17.05;5.82;;;32.60;87.20;;;;;;4189361;28;20040;-65
2022/06/22 10:07:34;;;;;;;4.88;2.38;;;32.70;87.30;;;;;;4178040;28;20052;-65
2022/06/22 10:10:14;;;;;;;15.57;3.53;;;32.70;88.50;;;;;;4169689;28;20053;-65
2022/06/22 10:12:53;;;;;;;7.07;3.00;;;32.70;88.60;;;;;;4171775;28;20537;-65
2022/06/22 10:15:20;;;;;;;5.25;3.10;;;32.70;88.70;;;;;;4179424;28;20560;-65
2022/06/22 10:17:53;;;;;;;6.88;3.40;;;32.70;88.40;;;;;;4178967;28;20045;-64
2022/06/22 10:20:49;;;;;;;6.43;2.67;;;32.70;88.90;;;;;;4159740;28;20045;-65
2022/06/22 10:23:28;;;;;;;9.15;4.40;;;32.70;89.20;;;;;;4160477;28;20041;-65
2022/06/22 10:26:09;;;;;;;8.85;4.97;;;32.60;89.60;;;;;;4156687;28;20049;-65
2022/06/22 10:28:42;;;;;;;14.00;8.05;;;32.60;89.60;;;;;;4158536;28;20740;-65
2022/06/22 10:31:29;;;;;;;13.93;8.52;;;32.50;89.40;;;;;;4142156;28;20073;-65
2022/06/22 10:34:06;;;;;;;14.27;8.63;;;32.50;89.30;;;;;;4158331;28;20128;-65
2022/06/22 10:36:39;;;;;;;10.80;6.82;;;32.50;88.90;;;;;;4156161;28;20056;-65
2022/06/22 10:39:25;;;;;;;8.50;4.82;;;32.40;89.50;;;;;;4162552;28;20140;-65
2022/06/22 10:47:31;;;;;;;6.53;3.03;;;31.60;90.40;;;;;;4193162;28;20059;-65
2022/06/22 10:50:20;;;;;;;6.72;4.43;;;31.80;90.30;;;;;;4175165;28;20049;-66
2022/06/22 10:53:03;;;;;;;13.57;9.15;;;31.70;90.60;;;;;;4178330;28;20052;-67
2022/06/22 10:55:32;;;;;;;12.48;5.63;;;31.30;91.10;;;;;;4177089;28;20132;-66
2022/06/22 10:58:04;;;;;;;7.88;4.78;;;31.20;91.60;;;;;;4177288;28;20128;-64
2022/06/22 11:00:19;;;;;;;7.78;4.88;;;31.20;91.30;;;;;;4175710;28;20129;-63
2022/06/22 11:02:59;;;;;;;10.25;5.95;;;31.10;91.70;;;;;;4160407;28;20075;-64
2022/06/22 11:05:31;;;;;;;14.57;7.20;;;30.90;91.90;;;;;;4175535;28;20602;-65
2022/06/22 11:08:16;;;;;;;13.80;8.18;;;31.10;91.80;;;;;;4176049;28;20045;-64
2022/06/22 11:10:58;;;;;;;10.13;5.65;;;31.10;92.00;;;;;;4191292;28;20531;-64
2022/06/22 11:13:23;;;;;;;8.90;4.75;;;31.20;91.90;;;;;;4177532;28;20029;-64
2022/06/22 11:16:00;;;;;;;45.45;34.40;;;31.30;91.90;;;;;;4177381;28;20395;-64
2022/06/22 11:18:37;;;;;;;18.95;12.82;;;31.30;92.00;;;;;;4177542;28;20040;-64
2022/06/22 11:21:13;;;;;;;23.10;14.35;;;31.30;92.00;;;;;;4176330;28;20076;-65
2022/06/22 11:23:38;;;;;;;17.15;10.95;;;31.40;91.90;;;;;;4175460;28;20048;-65
2022/06/22 11:31:25;;;;;;;13.75;7.53;;;31.50;91.80;;;;;;4177258;28;20052;-64
2022/06/22 11:34:06;;;;;;;9.63;4.82;;;31.20;92.30;;;;;;4175552;28;20052;-64
2022/06/22 11:36:49;;;;;;;5.63;3.80;;;31.00;92.40;;;;;;4173676;28;20508;-65
2022/06/22 11:39:38;;;;;;;8.05;4.43;;;31.20;92.50;;;;;;4177381;28;20765;-64
2022/06/22 11:42:17;;;;;;;8.45;4.53;;;31.20;92.40;;;;;;4175872;28;20073;-64
2022/06/22 11:47:21;;;;;;;8.07;4.03;;;31.30;92.50;;;;;;4175170;28;20045;-64
2022/06/22 11:50:02;;;;;;;11.98;4.63;;;31.20;92.80;;;;;;4175585;28;20046;-65
2022/06/22 11:52:42;;;;;;;7.30;4.70;;;30.90;92.60;;;;;;4186084;28;20044;-63
2022/06/22 11:55:12;;;;;;;7.97;5.20;;;30.80;93.00;;;;;;4185980;28;20079;-64
2022/06/22 11:57:54;;;;;;;8.65;4.55;;;30.80;93.10;;;;;;4169622;28;20084;-64
2022/06/22 12:00:31;;;;;;;7.55;3.65;;;30.70;93.00;;;;;;4169086;28;20037;-64
2022/06/22 12:03:04;;;;;;;6.90;3.78;;;30.50;93.30;;;;;;4158986;28;20810;-63
2022/06/22 12:05:37;;;;;;;6.50;3.88;;;30.50;93.50;;;;;;4173672;28;20049;-64
2022/06/22 12:08:13;;;;;;;8.38;3.78;;;30.50;93.90;;;;;;4174748;28;20587;-64
2022/06/22 12:10:58;;;;;;;8.18;4.00;;;30.60;93.50;;;;;;4179007;28;20060;-64
2022/06/22 12:15:04;;;;;;;7.07;3.95;;;30.60;93.60;;;;;;4176147;28;20051;-64
2022/06/22 12:16:32;;;;;;;9.98;5.60;;;30.80;93.60;;;;;;4165128;28;20048;-64
2022/06/22 12:18:55;;;;;;;9.98;5.15;;;30.60;93.70;;;;;;4160501;28;20809;-65
2022/06/22 12:21:15;;;;;;;9.98;5.60;;;30.70;93.80;;;;;;4167255;28;20415;-65
2022/06/22 12:24:01;;;;;;;10.03;6.33;;;30.70;93.70;;;;;;4161391;28;20053;-64
2022/06/22 12:26:38;;;;;;;14.95;7.13;;;30.70;93.60;;;;;;4160949;28;20045;-65
2022/06/22 12:29:07;;;;;;;11.55;6.90;;;30.80;93.60;;;;;;4166022;28;20053;-65
2022/06/22 12:31:33;;;;;;;12.57;6.78;;;30.80;93.80;;;;;;4166613;28;20063;-64
2022/06/22 12:34:37;;;;;;;15.20;6.90;;;30.90;93.80;;;;;;4163179;28;20439;-64
2022/06/22 12:36:48;;;;;;;13.32;6.75;;;30.90;93.90;;;;;;4163472;28;20132;-64
2022/06/22 12:39:13;;;;;;;12.45;7.13;;;30.90;93.90;;;;;;4159107;28;20066;-64
2022/06/22 12:41:47;;;;;;;12.48;6.97;;;30.60;94.20;;;;;;4159514;28;20562;-64
2022/06/22 12:44:18;;;;;;;25.17;20.60;;;30.60;94.30;;;;;;4163676;28;20045;-64
2022/06/22 12:46:50;;;;;;;42.90;37.35;;;30.70;94.10;;;;;;4165510;28;20393;-65
2022/06/22 12:49:34;;;;;;;43.53;35.15;;;30.80;94.20;;;;;;4169182;28;20160;-65
2022/06/22 12:51:53;;;;;;;26.85;21.33;;;30.80;94.20;;;;;;4166196;28;20914;-65
2022/06/22 12:54:20;;;;;;;24.58;20.45;;;30.80;94.20;;;;;;4168280;28;20057;-64